Baltimore, MD (21222)

6:50 AM EST on February 01, 2015 (GMT -0500)
Canton | Change Station
CLOSE
Current Station
Personal Weather Station
Location: Baltimore, MD
Elevation: 56 ft
Nearby Weather Stations

Elev 56 ft 39.28 °N, 76.57 °W | Updated 1 second ago

Overcast
Overcast
26.1 °F
Feels Like 26 °F
N
2.2
Wind Variable Wind from SW
Gusts 3.8 mph

Today
High -- | Low -- °F
--% Chance of Precip.
Yesterday
High -- | Low -- °F
Precip. -- in
7:13 AM 5:26 PM
Waxing Gibbous, 94% visible
Pressure 30.27 in
Visibility 10.0 miles
Clouds Scattered Clouds 5000 ft
Mostly Cloudy 10000 ft
Overcast 15000 ft
Windchill 26 °F
Dew Point 13 °F
Humidity 58%
Rainfall 0.00 in
Snow Depth Not available.
UV 0 out of 12
Pollen .30 out of 12
Air Quality Not available.
Flu Activity Not available.
METAR KBWI 011054Z 00000KT 10SM SCT050 BKN100 OVC150 M05/M09 A3026 RMK AO2 SLP249 T10501094

More Conditions Fewer Conditions

Pressure 30.27 in
Visibility 10.0 miles
Clouds Scattered Clouds 5000 ft
Mostly Cloudy 10000 ft
Overcast 15000 ft
Windchill 26 °F
Dew Point 13 °F
Humidity 58%
Rainfall 0.00 in
Snow Depth Not available.
UV 0 out of 12
Pollen .30 out of 12
Air Quality Not available.
Flu Activity Not available.
METAR KBWI 011054Z 00000KT 10SM SCT050 BKN100 OVC150 M05/M09 A3026 RMK AO2 SLP249 T10501094

More Conditions Fewer Conditions

10-Day Weather Forecast

Almanac

Astronomy

Feb. 01, 2015 Rise Set
Actual Time
Civil Twilight
Nautical Twilight
Astronomical Twilight
Moon
Length of Visible Light
Length of Day
Tomorrow will be .
, % of the Moon is Illuminated

Today's Extremes

State Highs State Lows

Community

WunderPhotos

Upload Photos

1,792,346 photos uploaded!

WunderBlogs® & News

Nearby

Air Quality

  Air Quality AQ Index Pollutant
Not available.

Snow Depth

Station Depth Elevation

Earthquake Activity

City Distance Mag. Time & Date
Minimum magnitude displayed is 2.5.

Coastal Water Temperatures

Place Temperature

Nearby Weather Stations